sensor_id;sensor_type;location;lat;lon;timestamp;P1;durP1;ratioP1;P2;durP2;ratioP2
49800;SDS011;35698;50.232;30.540;2022-09-09T00:03:35;9.58;;;5.91;;
49800;SDS011;35698;50.232;30.540;2022-09-09T00:11:43;9.59;;;5.37;;
49800;SDS011;35698;50.232;30.540;2022-09-09T00:14:34;7.47;;;4.86;;
49800;SDS011;35698;50.232;30.540;2022-09-09T00:19:05;8.83;;;5.05;;
49800;SDS011;35698;50.232;30.540;2022-09-09T00:20:12;7.14;;;4.76;;
49800;SDS011;35698;50.232;30.540;2022-09-09T00:24:08;9.43;;;5.11;;
49800;SDS011;35698;50.232;30.540;2022-09-09T00:25:30;8.53;;;4.84;;
49800;SDS011;35698;50.232;30.540;2022-09-09T00:26:48;8.52;;;5.02;;
49800;SDS011;35698;50.232;30.540;2022-09-09T00:27:53;9.99;;;5.61;;
49800;SDS011;35698;50.232;30.540;2022-09-09T00:29:09;10.01;;;5.27;;
49800;SDS011;35698;50.232;30.540;2022-09-09T00:30:15;8.35;;;5.49;;
49800;SDS011;35698;50.232;30.540;2022-09-09T00:32:38;9.19;;;5.64;;
49800;SDS011;35698;50.232;30.540;2022-09-09T00:33:42;7.71;;;4.41;;
49800;SDS011;35698;50.232;30.540;2022-09-09T00:35:02;9.20;;;5.59;;
49800;SDS011;35698;50.232;30.540;2022-09-09T00:36:09;12.01;;;5.64;;
49800;SDS011;35698;50.232;30.540;2022-09-09T00:37:22;10.48;;;5.25;;
49800;SDS011;35698;50.232;30.540;2022-09-09T00:39:45;7.20;;;5.05;;
49800;SDS011;35698;50.232;30.540;2022-09-09T00:43:35;9.32;;;5.66;;
49800;SDS011;35698;50.232;30.540;2022-09-09T00:44:45;8.25;;;5.64;;
49800;SDS011;35698;50.232;30.540;2022-09-09T00:47:49;8.93;;;5.23;;
49800;SDS011;35698;50.232;30.540;2022-09-09T00:49:21;9.33;;;5.69;;
49800;SDS011;35698;50.232;30.540;2022-09-09T00:56:18;10.15;;;5.38;;
49800;SDS011;35698;50.232;30.540;2022-09-09T00:58:46;8.64;;;4.68;;
49800;SDS011;35698;50.232;30.540;2022-09-09T01:01:34;12.04;;;5.61;;
49800;SDS011;35698;50.232;30.540;2022-09-09T01:02:44;9.62;;;5.36;;
49800;SDS011;35698;50.232;30.540;2022-09-09T01:03:56;9.53;;;5.82;;
49800;SDS011;35698;50.232;30.540;2022-09-09T01:05:02;9.66;;;4.89;;
49800;SDS011;35698;50.232;30.540;2022-09-09T01:07:37;10.74;;;5.41;;
49800;SDS011;35698;50.232;30.540;2022-09-09T01:09:59;10.96;;;5.41;;
49800;SDS011;35698;50.232;30.540;2022-09-09T01:11:16;8.77;;;5.43;;
49800;SDS011;35698;50.232;30.540;2022-09-09T01:12:40;8.09;;;5.16;;
49800;SDS011;35698;50.232;30.540;2022-09-09T01:13:58;7.45;;;5.29;;
49800;SDS011;35698;50.232;30.540;2022-09-09T01:15:08;8.99;;;5.36;;
49800;SDS011;35698;50.232;30.540;2022-09-09T01:16:20;9.76;;;5.37;;
49800;SDS011;35698;50.232;30.540;2022-09-09T01:17:25;8.66;;;5.31;;
49800;SDS011;35698;50.232;30.540;2022-09-09T01:18:46;8.99;;;5.54;;
49800;SDS011;35698;50.232;30.540;2022-09-09T01:24:27;8.54;;;5.22;;
49800;SDS011;35698;50.232;30.540;2022-09-09T01:26:58;7.57;;;4.74;;
49800;SDS011;35698;50.232;30.540;2022-09-09T01:28:21;10.71;;;5.34;;
49800;SDS011;35698;50.232;30.540;2022-09-09T01:29:22;11.29;;;5.89;;
49800;SDS011;35698;50.232;30.540;2022-09-09T01:30:26;9.65;;;5.20;;
49800;SDS011;35698;50.232;30.540;2022-09-09T01:32:56;11.69;;;5.82;;
49800;SDS011;35698;50.232;30.540;2022-09-09T01:34:01;7.99;;;5.36;;
49800;SDS011;35698;50.232;30.540;2022-09-09T01:35:20;7.51;;;4.93;;
49800;SDS011;35698;50.232;30.540;2022-09-09T01:37:54;7.73;;;4.63;;
49800;SDS011;35698;50.232;30.540;2022-09-09T01:38:57;7.75;;;4.84;;
49800;SDS011;35698;50.232;30.540;2022-09-09T01:40:01;7.34;;;5.22;;
49800;SDS011;35698;50.232;30.540;2022-09-09T01:41:05;10.35;;;5.68;;
49800;SDS011;35698;50.232;30.540;2022-09-09T01:42:16;8.25;;;5.14;;
49800;SDS011;35698;50.232;30.540;2022-09-09T01:43:20;9.75;;;5.32;;
49800;SDS011;35698;50.232;30.540;2022-09-09T01:44:33;8.59;;;5.72;;
49800;SDS011;35698;50.232;30.540;2022-09-09T01:45:41;11.05;;;5.82;;
49800;SDS011;35698;50.232;30.540;2022-09-09T01:46:55;8.10;;;5.18;;
49800;SDS011;35698;50.232;30.540;2022-09-09T01:47:59;7.13;;;5.12;;
49800;SDS011;35698;50.232;30.540;2022-09-09T01:49:10;7.83;;;5.18;;
49800;SDS011;35698;50.232;30.540;2022-09-09T01:50:15;9.10;;;5.56;;
49800;SDS011;35698;50.232;30.540;2022-09-09T01:51:20;8.89;;;5.14;;
49800;SDS011;35698;50.232;30.540;2022-09-09T01:52:24;10.34;;;5.76;;
49800;SDS011;35698;50.232;30.540;2022-09-09T01:53:35;7.98;;;5.48;;
49800;SDS011;35698;50.232;30.540;2022-09-09T01:54:40;8.15;;;5.29;;
49800;SDS011;35698;50.232;30.540;2022-09-09T01:57:21;8.88;;;6.41;;
49800;SDS011;35698;50.232;30.540;2022-09-09T02:00:00;9.67;;;5.32;;
49800;SDS011;35698;50.232;30.540;2022-09-09T02:04:22;11.19;;;6.08;;
49800;SDS011;35698;50.232;30.540;2022-09-09T02:06:56;6.74;;;4.33;;
49800;SDS011;35698;50.232;30.540;2022-09-09T02:09:24;8.90;;;6.16;;
49800;SDS011;35698;50.232;30.540;2022-09-09T02:10:33;8.36;;;4.86;;
49800;SDS011;35698;50.232;30.540;2022-09-09T02:11:42;8.74;;;5.44;;
49800;SDS011;35698;50.232;30.540;2022-09-09T02:14:16;9.16;;;5.35;;
49800;SDS011;35698;50.232;30.540;2022-09-09T02:15:32;7.87;;;5.51;;
49800;SDS011;35698;50.232;30.540;2022-09-09T02:16:40;9.39;;;5.67;;
49800;SDS011;35698;50.232;30.540;2022-09-09T02:17:58;9.67;;;5.55;;
49800;SDS011;35698;50.232;30.540;2022-09-09T02:19:06;8.11;;;5.03;;
49800;SDS011;35698;50.232;30.540;2022-09-09T02:20:27;11.51;;;5.97;;
49800;SDS011;35698;50.232;30.540;2022-09-09T02:21:36;6.78;;;4.64;;
49800;SDS011;35698;50.232;30.540;2022-09-09T02:22:40;9.37;;;5.86;;
49800;SDS011;35698;50.232;30.540;2022-09-09T02:23:54;9.20;;;5.54;;
49800;SDS011;35698;50.232;30.540;2022-09-09T02:25:01;9.45;;;5.66;;
49800;SDS011;35698;50.232;30.540;2022-09-09T02:26:25;10.58;;;6.40;;
49800;SDS011;35698;50.232;30.540;2022-09-09T02:27:30;8.69;;;5.49;;
49800;SDS011;35698;50.232;30.540;2022-09-09T02:28:41;10.32;;;5.81;;
49800;SDS011;35698;50.232;30.540;2022-09-09T02:29:44;7.44;;;5.34;;
49800;SDS011;35698;50.232;30.540;2022-09-09T02:30:48;9.95;;;5.71;;
49800;SDS011;35698;50.232;30.540;2022-09-09T02:31:54;7.49;;;5.46;;
49800;SDS011;35698;50.232;30.540;2022-09-09T02:33:08;8.04;;;5.63;;
49800;SDS011;35698;50.232;30.540;2022-09-09T02:34:14;11.06;;;6.01;;
49800;SDS011;35698;50.232;30.540;2022-09-09T02:35:28;8.75;;;5.65;;
49800;SDS011;35698;50.232;30.540;2022-09-09T02:36:35;10.13;;;6.47;;
49800;SDS011;35698;50.232;30.540;2022-09-09T02:37:42;10.52;;;5.59;;
49800;SDS011;35698;50.232;30.540;2022-09-09T02:38:54;10.24;;;5.38;;
49800;SDS011;35698;50.232;30.540;2022-09-09T02:39:59;11.46;;;5.96;;
49800;SDS011;35698;50.232;30.540;2022-09-09T02:41:02;8.96;;;5.92;;
49800;SDS011;35698;50.232;30.540;2022-09-09T02:42:06;10.46;;;5.71;;
49800;SDS011;35698;50.232;30.540;2022-09-09T02:43:17;9.12;;;5.79;;
49800;SDS011;35698;50.232;30.540;2022-09-09T02:44:21;9.92;;;6.32;;
49800;SDS011;35698;50.232;30.540;2022-09-09T02:45:25;10.46;;;6.17;;
49800;SDS011;35698;50.232;30.540;2022-09-09T02:49:19;9.19;;;5.68;;
49800;SDS011;35698;50.232;30.540;2022-09-09T02:50:49;8.44;;;5.72;;
49800;SDS011;35698;50.232;30.540;2022-09-09T02:52:06;10.00;;;5.53;;
49800;SDS011;35698;50.232;30.540;2022-09-09T02:53:20;9.87;;;5.77;;
49800;SDS011;35698;50.232;30.540;2022-09-09T02:54:39;8.76;;;5.56;;
49800;SDS011;35698;50.232;30.540;2022-09-09T02:55:45;8.72;;;5.54;;
49800;SDS011;35698;50.232;30.540;2022-09-09T02:57:06;8.39;;;6.22;;
49800;SDS011;35698;50.232;30.540;2022-09-09T02:59:34;11.20;;;6.15;;
49800;SDS011;35698;50.232;30.540;2022-09-09T03:00:38;9.58;;;5.91;;
49800;SDS011;35698;50.232;30.540;2022-09-09T03:01:43;8.77;;;5.64;;
49800;SDS011;35698;50.232;30.540;2022-09-09T03:02:47;9.21;;;6.04;;
49800;SDS011;35698;50.232;30.540;2022-09-09T03:03:58;7.98;;;5.63;;
49800;SDS011;35698;50.232;30.540;2022-09-09T03:05:01;9.64;;;6.25;;
49800;SDS011;35698;50.232;30.540;2022-09-09T03:06:12;11.59;;;5.97;;
49800;SDS011;35698;50.232;30.540;2022-09-09T03:07:16;9.71;;;5.92;;
49800;SDS011;35698;50.232;30.540;2022-09-09T03:08:28;10.66;;;5.17;;
49800;SDS011;35698;50.232;30.540;2022-09-09T03:09:32;9.20;;;6.07;;
49800;SDS011;35698;50.232;30.540;2022-09-09T03:10:35;8.29;;;5.74;;
49800;SDS011;35698;50.232;30.540;2022-09-09T03:11:39;8.46;;;5.28;;
49800;SDS011;35698;50.232;30.540;2022-09-09T03:12:42;8.74;;;5.64;;
49800;SDS011;35698;50.232;30.540;2022-09-09T03:13:53;7.93;;;6.02;;
49800;SDS011;35698;50.232;30.540;2022-09-09T03:14:57;8.91;;;5.79;;
49800;SDS011;35698;50.232;30.540;2022-09-09T03:16:01;9.72;;;5.81;;
49800;SDS011;35698;50.232;30.540;2022-09-09T03:17:05;9.35;;;5.21;;
49800;SDS011;35698;50.232;30.540;2022-09-09T03:18:08;10.35;;;5.48;;
49800;SDS011;35698;50.232;30.540;2022-09-09T03:19:20;9.38;;;5.31;;
49800;SDS011;35698;50.232;30.540;2022-09-09T03:20:25;7.83;;;5.37;;
49800;SDS011;35698;50.232;30.540;2022-09-09T03:21:38;10.25;;;6.44;;
49800;SDS011;35698;50.232;30.540;2022-09-09T03:22:41;10.74;;;5.78;;
49800;SDS011;35698;50.232;30.540;2022-09-09T03:23:52;9.68;;;5.96;;
49800;SDS011;35698;50.232;30.540;2022-09-09T03:24:56;9.62;;;5.80;;
49800;SDS011;35698;50.232;30.540;2022-09-09T03:25:59;8.93;;;5.76;;
49800;SDS011;35698;50.232;30.540;2022-09-09T03:27:03;9.58;;;5.61;;
49800;SDS011;35698;50.232;30.540;2022-09-09T03:28:14;8.88;;;5.25;;
49800;SDS011;35698;50.232;30.540;2022-09-09T03:29:17;9.68;;;5.31;;
49800;SDS011;35698;50.232;30.540;2022-09-09T03:30:28;7.97;;;5.51;;
49800;SDS011;35698;50.232;30.540;2022-09-09T03:31:32;10.81;;;5.49;;
49800;SDS011;35698;50.232;30.540;2022-09-09T03:32:36;9.56;;;5.82;;
49800;SDS011;35698;50.232;30.540;2022-09-09T03:33:48;11.74;;;6.07;;
49800;SDS011;35698;50.232;30.540;2022-09-09T03:34:51;9.73;;;5.94;;
49800;SDS011;35698;50.232;30.540;2022-09-09T03:35:55;9.19;;;5.31;;
49800;SDS011;35698;50.232;30.540;2022-09-09T03:36:59;14.26;;;5.43;;
49800;SDS011;35698;50.232;30.540;2022-09-09T03:38:10;8.56;;;5.31;;
49800;SDS011;35698;50.232;30.540;2022-09-09T03:39:13;9.83;;;5.76;;
49800;SDS011;35698;50.232;30.540;2022-09-09T03:40:25;9.15;;;5.55;;
49800;SDS011;35698;50.232;30.540;2022-09-09T03:41:28;9.23;;;5.39;;
49800;SDS011;35698;50.232;30.540;2022-09-09T03:42:33;12.17;;;5.58;;
49800;SDS011;35698;50.232;30.540;2022-09-09T03:43:44;8.62;;;5.66;;
49800;SDS011;35698;50.232;30.540;2022-09-09T03:44:48;9.89;;;5.96;;
49800;SDS011;35698;50.232;30.540;2022-09-09T03:45:51;7.91;;;5.01;;
49800;SDS011;35698;50.232;30.540;2022-09-09T03:46:56;10.01;;;5.60;;
49800;SDS011;35698;50.232;30.540;2022-09-09T03:47:59;7.45;;;5.46;;
49800;SDS011;35698;50.232;30.540;2022-09-09T03:49:10;7.96;;;5.25;;
49800;SDS011;35698;50.232;30.540;2022-09-09T03:50:14;8.02;;;5.28;;
49800;SDS011;35698;50.232;30.540;2022-09-09T03:51:18;10.49;;;5.84;;
49800;SDS011;35698;50.232;30.540;2022-09-09T03:52:29;8.46;;;5.52;;
49800;SDS011;35698;50.232;30.540;2022-09-09T03:53:33;8.13;;;5.51;;
49800;SDS011;35698;50.232;30.540;2022-09-09T03:54:44;7.92;;;5.86;;
49800;SDS011;35698;50.232;30.540;2022-09-09T03:55:50;9.64;;;5.25;;
49800;SDS011;35698;50.232;30.540;2022-09-09T03:56:55;10.18;;;6.33;;
49800;SDS011;35698;50.232;30.540;2022-09-09T03:57:58;9.36;;;5.39;;
49800;SDS011;35698;50.232;30.540;2022-09-09T03:59:09;7.67;;;5.81;;
49800;SDS011;35698;50.232;30.540;2022-09-09T04:00:13;8.74;;;4.89;;
49800;SDS011;35698;50.232;30.540;2022-09-09T04:01:17;6.93;;;4.91;;
49800;SDS011;35698;50.232;30.540;2022-09-09T04:02:21;9.24;;;5.83;;
49800;SDS011;35698;50.232;30.540;2022-09-09T04:03:32;7.19;;;5.19;;
49800;SDS011;35698;50.232;30.540;2022-09-09T04:04:35;8.19;;;4.97;;
49800;SDS011;35698;50.232;30.540;2022-09-09T04:05:39;8.78;;;4.96;;
49800;SDS011;35698;50.232;30.540;2022-09-09T04:06:50;8.98;;;5.73;;
49800;SDS011;35698;50.232;30.540;2022-09-09T04:07:53;8.73;;;5.88;;
49800;SDS011;35698;50.232;30.540;2022-09-09T04:09:05;9.84;;;5.54;;
49800;SDS011;35698;50.232;30.540;2022-09-09T04:10:10;7.95;;;5.09;;
49800;SDS011;35698;50.232;30.540;2022-09-09T04:11:13;11.35;;;5.52;;
49800;SDS011;35698;50.232;30.540;2022-09-09T04:12:18;9.11;;;5.19;;
49800;SDS011;35698;50.232;30.540;2022-09-09T04:13:29;7.68;;;5.27;;
49800;SDS011;35698;50.232;30.540;2022-09-09T04:14:32;8.95;;;5.27;;
49800;SDS011;35698;50.232;30.540;2022-09-09T04:15:36;9.86;;;5.61;;
49800;SDS011;35698;50.232;30.540;2022-09-09T04:16:39;18.93;;;5.68;;
49800;SDS011;35698;50.232;30.540;2022-09-09T04:17:43;20.16;;;5.96;;
49800;SDS011;35698;50.232;30.540;2022-09-09T04:18:54;15.79;;;5.38;;
49800;SDS011;35698;50.232;30.540;2022-09-09T04:19:57;8.25;;;5.41;;
49800;SDS011;35698;50.232;30.540;2022-09-09T04:21:01;11.16;;;5.73;;
49800;SDS011;35698;50.232;30.540;2022-09-09T04:22:05;7.70;;;4.93;;
49800;SDS011;35698;50.232;30.540;2022-09-09T04:23:08;7.29;;;5.32;;
49800;SDS011;35698;50.232;30.540;2022-09-09T04:24:19;7.91;;;5.34;;
49800;SDS011;35698;50.232;30.540;2022-09-09T04:25:23;10.56;;;5.08;;
49800;SDS011;35698;50.232;30.540;2022-09-09T04:26:26;7.34;;;4.97;;
49800;SDS011;35698;50.232;30.540;2022-09-09T04:27:30;12.78;;;5.73;;
49800;SDS011;35698;50.232;30.540;2022-09-09T04:28:41;9.04;;;5.35;;
49800;SDS011;35698;50.232;30.540;2022-09-09T04:29:44;8.19;;;5.44;;
49800;SDS011;35698;50.232;30.540;2022-09-09T04:30:48;6.19;;;4.66;;
49800;SDS011;35698;50.232;30.540;2022-09-09T04:31:51;8.58;;;5.15;;
49800;SDS011;35698;50.232;30.540;2022-09-09T04:32:56;7.56;;;5.01;;
49800;SDS011;35698;50.232;30.540;2022-09-09T04:34:08;8.38;;;5.83;;
49800;SDS011;35698;50.232;30.540;2022-09-09T04:35:12;9.11;;;5.39;;
49800;SDS011;35698;50.232;30.540;2022-09-09T04:36:16;10.42;;;6.21;;
49800;SDS011;35698;50.232;30.540;2022-09-09T04:37:28;9.75;;;5.69;;
49800;SDS011;35698;50.232;30.540;2022-09-09T04:38:31;14.74;;;5.41;;
49800;SDS011;35698;50.232;30.540;2022-09-09T04:39:35;9.19;;;5.18;;
49800;SDS011;35698;50.232;30.540;2022-09-09T04:40:47;8.52;;;5.36;;
49800;SDS011;35698;50.232;30.540;2022-09-09T04:41:51;10.04;;;5.24;;
49800;SDS011;35698;50.232;30.540;2022-09-09T04:42:54;10.69;;;4.86;;
49800;SDS011;35698;50.232;30.540;2022-09-09T04:43:58;10.19;;;6.01;;
49800;SDS011;35698;50.232;30.540;2022-09-09T04:45:02;11.16;;;4.66;;
49800;SDS011;35698;50.232;30.540;2022-09-09T04:46:13;8.53;;;5.16;;
49800;SDS011;35698;50.232;30.540;2022-09-09T04:47:19;10.03;;;6.04;;
49800;SDS011;35698;50.232;30.540;2022-09-09T04:48:22;11.54;;;5.83;;
49800;SDS011;35698;50.232;30.540;2022-09-09T04:49:34;8.18;;;5.92;;
49800;SDS011;35698;50.232;30.540;2022-09-09T04:50:38;8.22;;;5.48;;
49800;SDS011;35698;50.232;30.540;2022-09-09T04:51:50;9.94;;;5.27;;
49800;SDS011;35698;50.232;30.540;2022-09-09T04:52:53;8.08;;;5.31;;
49800;SDS011;35698;50.232;30.540;2022-09-09T04:53:56;10.13;;;6.02;;
49800;SDS011;35698;50.232;30.540;2022-09-09T04:55:08;9.12;;;5.29;;
49800;SDS011;35698;50.232;30.540;2022-09-09T04:56:13;9.16;;;5.47;;
49800;SDS011;35698;50.232;30.540;2022-09-09T04:57:18;7.85;;;5.28;;
49800;SDS011;35698;50.232;30.540;2022-09-09T04:58:29;11.75;;;5.20;;
49800;SDS011;35698;50.232;30.540;2022-09-09T04:59:32;8.53;;;5.24;;
49800;SDS011;35698;50.232;30.540;2022-09-09T05:02:02;7.92;;;5.43;;
49800;SDS011;35698;50.232;30.540;2022-09-09T05:03:06;7.91;;;4.95;;
49800;SDS011;35698;50.232;30.540;2022-09-09T05:04:17;11.47;;;5.37;;
49800;SDS011;35698;50.232;30.540;2022-09-09T05:05:20;10.51;;;5.88;;
49800;SDS011;35698;50.232;30.540;2022-09-09T05:06:31;9.21;;;5.72;;
49800;SDS011;35698;50.232;30.540;2022-09-09T05:07:35;7.92;;;5.69;;
49800;SDS011;35698;50.232;30.540;2022-09-09T05:08:46;8.79;;;5.16;;
49800;SDS011;35698;50.232;30.540;2022-09-09T05:09:49;8.68;;;4.92;;
49800;SDS011;35698;50.232;30.540;2022-09-09T05:11:01;7.33;;;5.41;;
49800;SDS011;35698;50.232;30.540;2022-09-09T05:13:29;11.92;;;5.71;;
49800;SDS011;35698;50.232;30.540;2022-09-09T05:14:40;7.87;;;5.31;;
49800;SDS011;35698;50.232;30.540;2022-09-09T05:15:51;10.52;;;5.66;;
49800;SDS011;35698;50.232;30.540;2022-09-09T05:17:03;8.43;;;5.68;;
49800;SDS011;35698;50.232;30.540;2022-09-09T05:18:07;9.58;;;5.91;;
49800;SDS011;35698;50.232;30.540;2022-09-09T05:19:10;8.44;;;5.03;;
49800;SDS011;35698;50.232;30.540;2022-09-09T05:20:14;9.12;;;5.26;;
49800;SDS011;35698;50.232;30.540;2022-09-09T05:21:25;8.85;;;4.92;;
49800;SDS011;35698;50.232;30.540;2022-09-09T05:23:53;14.09;;;9.33;;
49800;SDS011;35698;50.232;30.540;2022-09-09T05:26:02;10.71;;;6.13;;
49800;SDS011;35698;50.232;30.540;2022-09-09T05:27:07;10.54;;;5.67;;
49800;SDS011;35698;50.232;30.540;2022-09-09T05:28:18;14.40;;;7.46;;
49800;SDS011;35698;50.232;30.540;2022-09-09T05:29:21;8.59;;;5.60;;
49800;SDS011;35698;50.232;30.540;2022-09-09T05:30:25;7.86;;;5.34;;
49800;SDS011;35698;50.232;30.540;2022-09-09T05:31:36;8.66;;;5.66;;
49800;SDS011;35698;50.232;30.540;2022-09-09T05:32:39;8.35;;;4.72;;
49800;SDS011;35698;50.232;30.540;2022-09-09T05:33:43;10.04;;;4.83;;
49800;SDS011;35698;50.232;30.540;2022-09-09T05:34:55;9.21;;;4.78;;
49800;SDS011;35698;50.232;30.540;2022-09-09T05:35:59;8.81;;;4.54;;
49800;SDS011;35698;50.232;30.540;2022-09-09T05:37:07;7.67;;;4.42;;
49800;SDS011;35698;50.232;30.540;2022-09-09T05:38:19;7.31;;;4.78;;
49800;SDS011;35698;50.232;30.540;2022-09-09T05:39:23;10.50;;;6.18;;
49800;SDS011;35698;50.232;30.540;2022-09-09T05:40:34;10.89;;;7.13;;
49800;SDS011;35698;50.232;30.540;2022-09-09T05:41:37;10.74;;;6.21;;
49800;SDS011;35698;50.232;30.540;2022-09-09T05:42:48;7.37;;;5.22;;
49800;SDS011;35698;50.232;30.540;2022-09-09T05:43:52;7.77;;;4.72;;
49800;SDS011;35698;50.232;30.540;2022-09-09T05:45:04;7.47;;;4.44;;
49800;SDS011;35698;50.232;30.540;2022-09-09T05:46:09;9.86;;;5.76;;
49800;SDS011;35698;50.232;30.540;2022-09-09T05:47:15;6.54;;;3.96;;
49800;SDS011;35698;50.232;30.540;2022-09-09T05:48:46;8.45;;;4.47;;
49800;SDS011;35698;50.232;30.540;2022-09-09T05:49:51;7.50;;;4.23;;
49800;SDS011;35698;50.232;30.540;2022-09-09T05:51:02;6.50;;;4.30;;
49800;SDS011;35698;50.232;30.540;2022-09-09T05:52:06;7.82;;;4.04;;
49800;SDS011;35698;50.232;30.540;2022-09-09T05:53:17;7.31;;;4.19;;
49800;SDS011;35698;50.232;30.540;2022-09-09T05:55:59;6.73;;;4.44;;
49800;SDS011;35698;50.232;30.540;2022-09-09T05:57:04;8.60;;;5.39;;
49800;SDS011;35698;50.232;30.540;2022-09-09T05:58:07;8.23;;;4.86;;
49800;SDS011;35698;50.232;30.540;2022-09-09T05:59:18;6.48;;;4.77;;
49800;SDS011;35698;50.232;30.540;2022-09-09T06:00:23;9.25;;;5.75;;
49800;SDS011;35698;50.232;30.540;2022-09-09T06:01:35;6.71;;;3.88;;
49800;SDS011;35698;50.232;30.540;2022-09-09T06:02:40;6.57;;;4.39;;
49800;SDS011;35698;50.232;30.540;2022-09-09T06:03:51;11.76;;;5.89;;
49800;SDS011;35698;50.232;30.540;2022-09-09T06:04:54;7.99;;;4.98;;
49800;SDS011;35698;50.232;30.540;2022-09-09T06:06:07;6.72;;;4.29;;
49800;SDS011;35698;50.232;30.540;2022-09-09T06:07:12;7.03;;;3.94;;
49800;SDS011;35698;50.232;30.540;2022-09-09T06:08:23;5.71;;;4.12;;
49800;SDS011;35698;50.232;30.540;2022-09-09T06:09:27;5.66;;;3.82;;
49800;SDS011;35698;50.232;30.540;2022-09-09T06:10:31;11.64;;;6.79;;
49800;SDS011;35698;50.232;30.540;2022-09-09T06:11:43;7.28;;;4.50;;
49800;SDS011;35698;50.232;30.540;2022-09-09T06:12:46;6.94;;;4.16;;
49800;SDS011;35698;50.232;30.540;2022-09-09T06:13:58;7.13;;;3.76;;
49800;SDS011;35698;50.232;30.540;2022-09-09T06:15:03;6.43;;;3.70;;
49800;SDS011;35698;50.232;30.540;2022-09-09T06:16:08;5.84;;;4.04;;
49800;SDS011;35698;50.232;30.540;2022-09-09T06:17:15;5.03;;;3.58;;
49800;SDS011;35698;50.232;30.540;2022-09-09T06:18:18;7.93;;;5.19;;
49800;SDS011;35698;50.232;30.540;2022-09-09T06:19:22;11.76;;;6.10;;
49800;SDS011;35698;50.232;30.540;2022-09-09T06:20:33;9.68;;;6.69;;
49800;SDS011;35698;50.232;30.540;2022-09-09T06:21:37;9.91;;;6.45;;
49800;SDS011;35698;50.232;30.540;2022-09-09T06:22:48;6.46;;;3.66;;
49800;SDS011;35698;50.232;30.540;2022-09-09T06:23:52;5.90;;;3.36;;
49800;SDS011;35698;50.232;30.540;2022-09-09T06:25:03;6.72;;;4.09;;
49800;SDS011;35698;50.232;30.540;2022-09-09T06:26:12;10.21;;;6.48;;
49800;SDS011;35698;50.232;30.540;2022-09-09T06:27:26;9.21;;;5.51;;
49800;SDS011;35698;50.232;30.540;2022-09-09T06:28:31;8.60;;;5.74;;
49800;SDS011;35698;50.232;30.540;2022-09-09T06:29:43;6.47;;;4.54;;
49800;SDS011;35698;50.232;30.540;2022-09-09T06:30:46;6.91;;;3.36;;
49800;SDS011;35698;50.232;30.540;2022-09-09T06:31:58;7.06;;;3.57;;
49800;SDS011;35698;50.232;30.540;2022-09-09T06:33:02;5.36;;;3.68;;
49800;SDS011;35698;50.232;30.540;2022-09-09T06:34:13;5.73;;;3.71;;
49800;SDS011;35698;50.232;30.540;2022-09-09T06:35:17;6.29;;;2.96;;
49800;SDS011;35698;50.232;30.540;2022-09-09T06:36:29;8.38;;;5.87;;
49800;SDS011;35698;50.232;30.540;2022-09-09T06:39:00;16.04;;;3.86;;
49800;SDS011;35698;50.232;30.540;2022-09-09T06:40:04;5.65;;;3.58;;
49800;SDS011;35698;50.232;30.540;2022-09-09T06:41:16;5.15;;;3.75;;
49800;SDS011;35698;50.232;30.540;2022-09-09T06:42:22;8.76;;;4.05;;
49800;SDS011;35698;50.232;30.540;2022-09-09T06:43:33;4.97;;;3.59;;
49800;SDS011;35698;50.232;30.540;2022-09-09T06:44:39;6.51;;;3.65;;
49800;SDS011;35698;50.232;30.540;2022-09-09T06:45:57;8.81;;;4.23;;
49800;SDS011;35698;50.232;30.540;2022-09-09T06:47:11;4.92;;;3.32;;
49800;SDS011;35698;50.232;30.540;2022-09-09T06:48:14;14.59;;;4.68;;
49800;SDS011;35698;50.232;30.540;2022-09-09T06:49:26;5.18;;;3.56;;
49800;SDS011;35698;50.232;30.540;2022-09-09T06:50:30;6.65;;;3.34;;
49800;SDS011;35698;50.232;30.540;2022-09-09T06:51:41;7.51;;;3.48;;
49800;SDS011;35698;50.232;30.540;2022-09-09T06:52:45;6.59;;;3.40;;
49800;SDS011;35698;50.232;30.540;2022-09-09T06:53:58;6.48;;;3.84;;
49800;SDS011;35698;50.232;30.540;2022-09-09T06:55:03;6.52;;;3.47;;
49800;SDS011;35698;50.232;30.540;2022-09-09T06:57:25;7.36;;;4.15;;
49800;SDS011;35698;50.232;30.540;2022-09-09T06:58:39;12.78;;;4.49;;
49800;SDS011;35698;50.232;30.540;2022-09-09T07:00:48;10.38;;;4.23;;
49800;SDS011;35698;50.232;30.540;2022-09-09T07:01:52;5.59;;;3.53;;
49800;SDS011;35698;50.232;30.540;2022-09-09T07:02:57;7.64;;;5.58;;
49800;SDS011;35698;50.232;30.540;2022-09-09T07:04:31;15.31;;;8.40;;
49800;SDS011;35698;50.232;30.540;2022-09-09T07:05:40;8.77;;;3.07;;
49800;SDS011;35698;50.232;30.540;2022-09-09T07:06:45;16.65;;;5.41;;
49800;SDS011;35698;50.232;30.540;2022-09-09T07:10:17;8.61;;;4.99;;
49800;SDS011;35698;50.232;30.540;2022-09-09T07:11:21;11.38;;;5.37;;
49800;SDS011;35698;50.232;30.540;2022-09-09T07:12:27;6.12;;;3.53;;
49800;SDS011;35698;50.232;30.540;2022-09-09T07:13:38;5.52;;;3.48;;
49800;SDS011;35698;50.232;30.540;2022-09-09T07:14:41;5.18;;;2.82;;
49800;SDS011;35698;50.232;30.540;2022-09-09T07:15:52;9.34;;;2.96;;
49800;SDS011;35698;50.232;30.540;2022-09-09T07:16:56;9.64;;;3.01;;
49800;SDS011;35698;50.232;30.540;2022-09-09T07:18:02;8.36;;;2.73;;
49800;SDS011;35698;50.232;30.540;2022-09-09T07:19:14;4.88;;;2.89;;
49800;SDS011;35698;50.232;30.540;2022-09-09T07:20:19;5.36;;;3.30;;
49800;SDS011;35698;50.232;30.540;2022-09-09T07:21:30;8.53;;;4.13;;
49800;SDS011;35698;50.232;30.540;2022-09-09T07:22:35;6.66;;;3.27;;
49800;SDS011;35698;50.232;30.540;2022-09-09T07:23:48;8.96;;;3.28;;
49800;SDS011;35698;50.232;30.540;2022-09-09T07:24:51;5.77;;;3.31;;
49800;SDS011;35698;50.232;30.540;2022-09-09T07:26:07;7.05;;;2.92;;
49800;SDS011;35698;50.232;30.540;2022-09-09T07:27:16;6.97;;;2.47;;
49800;SDS011;35698;50.232;30.540;2022-09-09T07:28:27;3.93;;;2.44;;
49800;SDS011;35698;50.232;30.540;2022-09-09T07:29:31;3.56;;;2.58;;
49800;SDS011;35698;50.232;30.540;2022-09-09T07:30:37;5.71;;;2.49;;
49800;SDS011;35698;50.232;30.540;2022-09-09T07:31:49;5.15;;;3.15;;
49800;SDS011;35698;50.232;30.540;2022-09-09T07:32:52;8.03;;;3.47;;
49800;SDS011;35698;50.232;30.540;2022-09-09T07:34:03;4.71;;;3.52;;
49800;SDS011;35698;50.232;30.540;2022-09-09T07:36:22;5.56;;;3.31;;
49800;SDS011;35698;50.232;30.540;2022-09-09T07:37:30;5.00;;;3.25;;
49800;SDS011;35698;50.232;30.540;2022-09-09T07:38:45;5.35;;;2.89;;
49800;SDS011;35698;50.232;30.540;2022-09-09T07:39:51;6.84;;;3.02;;
49800;SDS011;35698;50.232;30.540;2022-09-09T07:41:03;5.33;;;2.76;;
49800;SDS011;35698;50.232;30.540;2022-09-09T07:42:08;3.47;;;2.42;;
49800;SDS011;35698;50.232;30.540;2022-09-09T07:43:31;4.35;;;2.19;;
49800;SDS011;35698;50.232;30.540;2022-09-09T07:44:35;4.11;;;2.88;;
49800;SDS011;35698;50.232;30.540;2022-09-09T07:45:38;4.65;;;2.92;;
49800;SDS011;35698;50.232;30.540;2022-09-09T07:46:50;4.99;;;3.58;;
49800;SDS011;35698;50.232;30.540;2022-09-09T07:47:54;4.98;;;2.76;;
49800;SDS011;35698;50.232;30.540;2022-09-09T07:49:05;3.61;;;2.89;;
49800;SDS011;35698;50.232;30.540;2022-09-09T07:50:17;2.84;;;2.27;;
49800;SDS011;35698;50.232;30.540;2022-09-09T07:51:23;7.35;;;2.91;;
49800;SDS011;35698;50.232;30.540;2022-09-09T07:52:36;6.27;;;2.65;;
49800;SDS011;35698;50.232;30.540;2022-09-09T07:53:39;5.20;;;2.81;;
49800;SDS011;35698;50.232;30.540;2022-09-09T07:54:51;4.27;;;2.47;;
49800;SDS011;35698;50.232;30.540;2022-09-09T07:55:54;3.52;;;2.17;;